createdAt,value
2019-02-05T00:00:34.716Z,35.47
2019-02-05T00:01:08.059Z,31.43
2019-02-05T00:01:39.344Z,32.13
2019-02-05T00:02:11.816Z,33.20
2019-02-05T00:02:43.202Z,31.40
2019-02-05T00:04:07.828Z,33.03
2019-02-05T00:04:39.230Z,33.20
2019-02-05T00:05:10.516Z,34.90
2019-02-05T00:05:41.820Z,32.33
2019-02-05T00:06:13.076Z,35.43
2019-02-05T00:06:44.547Z,35.43
2019-02-05T00:07:15.833Z,34.83
2019-02-05T00:07:47.515Z,38.33
2019-02-05T00:08:18.695Z,35.93
2019-02-05T00:08:49.939Z,42.00
2019-02-05T00:09:21.130Z,32.30
2019-02-05T00:09:52.393Z,33.30
2019-02-05T00:10:23.617Z,35.57
2019-02-05T00:10:54.905Z,33.57
2019-02-05T00:11:26.278Z,33.07
2019-02-05T00:11:57.568Z,30.43
2019-02-05T00:12:29.028Z,33.53
2019-02-05T00:13:00.261Z,31.93
2019-02-05T00:13:31.445Z,32.83
2019-02-05T00:14:02.977Z,32.40
2019-02-05T00:14:34.150Z,30.90
2019-02-05T00:15:05.473Z,31.63
2019-02-05T00:15:37.659Z,30.77
2019-02-05T00:16:08.926Z,31.60
2019-02-05T00:16:40.167Z,28.70
2019-02-05T00:17:11.436Z,29.93
2019-02-05T00:17:42.619Z,32.27
2019-02-05T00:18:14.084Z,31.83
2019-02-05T00:18:45.286Z,34.20
2019-02-05T00:19:16.758Z,31.57
2019-02-05T00:19:48.960Z,36.43
2019-02-05T00:20:20.166Z,31.33
2019-02-05T00:20:51.372Z,32.53
2019-02-05T00:21:22.613Z,32.20
2019-02-05T00:21:53.851Z,35.33
2019-02-05T00:22:25.133Z,36.80
2019-02-05T00:22:56.412Z,34.13
2019-02-05T00:23:27.692Z,34.73
2019-02-05T00:23:58.965Z,33.07
2019-02-05T00:24:30.245Z,30.60
2019-02-05T00:25:01.919Z,36.40
2019-02-05T00:25:33.174Z,34.17
2019-02-05T00:26:06.352Z,32.43
2019-02-05T00:26:37.956Z,32.07
2019-02-05T00:27:09.205Z,31.57
2019-02-05T00:27:40.367Z,32.33
2019-02-05T00:28:11.610Z,31.80
2019-02-05T00:28:42.787Z,32.47
2019-02-05T00:29:14.051Z,34.07
2019-02-05T00:29:45.231Z,34.87
2019-02-05T00:30:16.534Z,29.63
2019-02-05T00:30:48.113Z,35.37
2019-02-05T00:31:19.372Z,30.97
2019-02-05T00:31:50.633Z,32.03
2019-02-05T00:32:22.060Z,32.67
2019-02-05T00:32:53.248Z,30.67
2019-02-05T00:33:24.472Z,35.57
2019-02-05T00:33:55.676Z,31.77
2019-02-05T00:34:26.899Z,35.60
2019-02-05T00:34:58.132Z,35.63
2019-02-05T00:35:29.364Z,34.60
2019-02-05T00:36:00.620Z,37.23
2019-02-05T00:36:32.164Z,35.27
2019-02-05T00:37:03.413Z,38.73
2019-02-05T00:37:34.636Z,38.63
2019-02-05T00:38:06.242Z,36.87
2019-02-05T00:38:37.451Z,38.93
2019-02-05T00:39:08.677Z,36.27
2019-02-05T00:39:39.906Z,34.70
2019-02-05T00:40:14.420Z,35.70
2019-02-05T00:40:46.213Z,35.97
2019-02-05T00:41:17.455Z,34.93
2019-02-05T00:41:48.649Z,34.37
2019-02-05T00:42:19.881Z,32.43
2019-02-05T00:42:51.099Z,31.27
2019-02-05T00:43:22.760Z,31.33
2019-02-05T00:43:54.031Z,36.13
2019-02-05T00:44:25.286Z,30.27
2019-02-05T00:44:56.475Z,33.53
2019-02-05T00:45:27.702Z,41.10
2019-02-05T00:45:58.892Z,32.83
2019-02-05T00:46:30.151Z,32.53
2019-02-05T00:47:01.324Z,30.83
2019-02-05T00:47:32.583Z,32.27
2019-02-05T00:48:04.076Z,31.90
2019-02-05T00:48:35.326Z,33.53
2019-02-05T00:49:06.932Z,33.57
2019-02-05T00:49:38.176Z,34.83
2019-02-05T00:50:12.468Z,32.73
2019-02-05T00:50:43.726Z,38.27
2019-02-05T00:51:14.918Z,40.10
2019-02-05T00:51:46.163Z,39.27
2019-02-05T00:52:17.395Z,36.87
2019-02-05T00:52:48.584Z,39.80
2019-02-05T00:53:19.807Z,40.97
2019-02-05T00:53:51.011Z,33.30
2019-02-05T00:54:22.237Z,36.00
2019-02-05T00:54:53.725Z,36.93
2019-02-05T00:55:24.931Z,33.53
2019-02-05T00:55:56.193Z,35.53
2019-02-05T00:56:27.408Z,34.93
2019-02-05T00:56:58.641Z,33.20
2019-02-05T00:57:29.867Z,37.83
2019-02-05T00:58:01.099Z,35.07
2019-02-05T00:58:32.317Z,32.90
2019-02-05T00:59:03.744Z,34.07
2019-02-05T00:59:34.954Z,36.30
2019-02-05T01:00:11.874Z,35.73
2019-02-05T01:00:43.110Z,37.43
2019-02-05T01:01:15.507Z,33.10
2019-02-05T01:01:47.241Z,37.33
2019-02-05T01:02:19.477Z,33.77
2019-02-05T01:02:50.764Z,31.33
2019-02-05T01:03:22.073Z,37.43
2019-02-05T01:03:53.350Z,39.10
2019-02-05T01:04:24.650Z,35.67
2019-02-05T01:04:55.965Z,37.97
2019-02-05T01:05:27.426Z,36.00
2019-02-05T01:05:58.615Z,37.43
2019-02-05T01:06:29.865Z,34.00
2019-02-05T01:07:01.025Z,37.57
2019-02-05T01:07:32.465Z,36.20
2019-02-05T01:08:03.725Z,37.03
2019-02-05T01:08:34.959Z,37.70
2019-02-05T01:09:06.782Z,34.80
2019-02-05T01:09:38.027Z,35.93
2019-02-05T01:10:09.505Z,34.63
2019-02-05T01:10:40.765Z,41.63
2019-02-05T01:11:11.960Z,39.73
2019-02-05T01:11:43.204Z,40.30
2019-02-05T01:12:14.387Z,36.50
2019-02-05T01:12:45.737Z,36.53
2019-02-05T01:13:17.259Z,39.20
2019-02-05T01:13:48.509Z,34.93
2019-02-05T01:14:19.706Z,39.57
2019-02-05T01:14:51.033Z,39.17
2019-02-05T01:15:24.020Z,36.53
2019-02-05T01:15:55.280Z,36.00
2019-02-05T01:16:26.490Z,33.87
2019-02-05T01:16:57.738Z,32.50
2019-02-05T01:17:28.930Z,35.17
2019-02-05T01:18:00.181Z,36.97
2019-02-05T01:18:31.360Z,36.73
2019-02-05T01:19:02.988Z,34.40
2019-02-05T01:19:34.158Z,33.03
2019-02-05T01:20:10.868Z,39.17
2019-02-05T01:20:42.040Z,37.77
2019-02-05T01:21:13.274Z,36.43
2019-02-05T01:21:44.443Z,37.57
2019-02-05T01:22:15.755Z,38.50
2019-02-05T01:22:47.161Z,38.67
2019-02-05T01:23:18.393Z,40.03
2019-02-05T01:23:49.604Z,39.73
2019-02-05T01:24:20.837Z,40.67
2019-02-05T01:24:52.054Z,50.93
2019-02-05T01:25:23.264Z,59.23
2019-02-05T01:25:54.785Z,59.83
2019-02-05T01:26:29.005Z,60.47
2019-02-05T01:26:59.111Z,55.40
2019-02-05T01:27:30.341Z,43.97
2019-02-05T01:28:01.585Z,42.57
2019-02-05T01:28:33.111Z,43.27
2019-02-05T01:29:04.347Z,46.10
2019-02-05T01:29:35.640Z,38.83
2019-02-05T01:30:13.932Z,38.63
2019-02-05T01:30:45.212Z,40.83
2019-02-05T01:31:16.512Z,43.20
2019-02-05T01:31:47.792Z,38.63
2019-02-05T01:32:19.072Z,37.07
2019-02-05T01:32:50.447Z,39.07
2019-02-05T01:33:21.630Z,36.90
2019-02-05T01:33:53.264Z,39.63
2019-02-05T01:34:24.469Z,45.00
2019-02-05T01:34:55.793Z,41.07
2019-02-05T01:35:26.967Z,41.03
2019-02-05T01:35:58.244Z,38.93
2019-02-05T01:36:29.453Z,40.43
2019-02-05T01:37:00.692Z,40.90
2019-02-05T01:37:31.867Z,34.80
2019-02-05T01:38:03.281Z,41.03
2019-02-05T01:38:34.453Z,37.67
2019-02-05T01:39:06.035Z,35.10
2019-02-05T01:39:37.632Z,32.33
2019-02-05T01:40:14.003Z,37.80
2019-02-05T01:40:45.479Z,35.80
2019-02-05T01:41:16.741Z,35.60
2019-02-05T01:41:47.936Z,35.17
2019-02-05T01:42:19.165Z,34.80
2019-02-05T01:42:50.556Z,32.80
2019-02-05T01:43:21.803Z,34.80
2019-02-05T01:43:52.980Z,32.43
2019-02-05T01:44:24.248Z,38.80
2019-02-05T01:44:55.460Z,32.40
2019-02-05T01:45:26.702Z,32.43
2019-02-05T01:45:57.899Z,36.30
2019-02-05T01:46:29.534Z,35.03
2019-02-05T01:47:00.706Z,31.43
2019-02-05T01:47:31.968Z,34.03
2019-02-05T01:48:03.168Z,37.10
2019-02-05T01:48:34.638Z,34.97
2019-02-05T01:49:06.251Z,35.63
2019-02-05T01:49:38.530Z,35.60
2019-02-05T01:50:16.529Z,36.70
2019-02-05T01:50:47.849Z,30.47
2019-02-05T01:51:19.110Z,32.63
2019-02-05T01:51:50.403Z,31.37
2019-02-05T01:52:23.611Z,32.40
2019-02-05T01:52:54.887Z,32.97
2019-02-05T01:53:26.423Z,32.00
2019-02-05T01:53:57.609Z,33.00
2019-02-05T01:54:28.867Z,31.37
2019-02-05T01:55:00.050Z,33.87
2019-02-05T01:55:31.305Z,34.50
2019-02-05T01:56:02.510Z,31.67
2019-02-05T01:56:40.411Z,33.80
2019-02-05T01:57:06.843Z,33.47
2019-02-05T01:57:38.074Z,34.20
2019-02-05T01:58:09.302Z,33.50
2019-02-05T01:58:40.616Z,32.17
2019-02-05T01:59:11.900Z,30.97
2019-02-05T01:59:43.193Z,31.73
2019-02-05T02:00:19.886Z,34.20
2019-02-05T02:00:51.186Z,33.67
2019-02-05T02:01:22.458Z,32.43
2019-02-05T02:01:53.746Z,32.00
2019-02-05T02:02:26.022Z,34.90
2019-02-05T02:02:57.307Z,37.13
2019-02-05T02:03:28.522Z,31.33
2019-02-05T02:03:59.684Z,35.00
2019-02-05T02:04:30.961Z,34.10
2019-02-05T02:05:04.021Z,30.60
2019-02-05T02:05:35.218Z,30.17
2019-02-05T02:06:06.877Z,34.63
2019-02-05T02:06:38.071Z,34.27
2019-02-05T02:07:09.723Z,32.97
2019-02-05T02:07:41.037Z,32.57
2019-02-05T02:08:12.376Z,33.70
2019-02-05T02:08:43.592Z,37.43
2019-02-05T02:09:14.835Z,29.97
2019-02-05T02:09:46.053Z,33.60
2019-02-05T02:10:24.849Z,33.93
2019-02-05T02:10:56.057Z,30.70
2019-02-05T02:11:27.272Z,29.97
2019-02-05T02:11:58.483Z,32.47
2019-02-05T02:12:29.699Z,35.20
2019-02-05T02:13:00.915Z,31.47
2019-02-05T02:13:32.149Z,32.90
2019-02-05T02:14:03.834Z,32.13
2019-02-05T02:14:35.030Z,34.60
2019-02-05T02:15:09.132Z,31.80
2019-02-05T02:15:40.446Z,31.37
2019-02-05T02:16:11.618Z,31.57
2019-02-05T02:16:42.843Z,32.33
2019-02-05T02:17:14.029Z,30.97
2019-02-05T02:17:45.303Z,30.87
2019-02-05T02:18:16.483Z,36.13
2019-02-05T02:18:47.751Z,35.47
2019-02-05T02:19:18.945Z,29.97
2019-02-05T02:19:50.600Z,31.10
2019-02-05T02:20:21.782Z,32.00
2019-02-05T02:20:53.044Z,33.37
2019-02-05T02:21:24.237Z,31.10
2019-02-05T02:21:55.505Z,30.53
2019-02-05T02:22:26.679Z,35.13
2019-02-05T02:22:57.927Z,33.40
2019-02-05T02:23:29.153Z,30.80
2019-02-05T02:24:00.363Z,32.23
2019-02-05T02:24:31.579Z,33.50
2019-02-05T02:25:06.901Z,33.63
2019-02-05T02:25:38.415Z,29.60
2019-02-05T02:26:09.643Z,31.93
2019-02-05T02:26:51.633Z,30.97
2019-02-05T02:27:14.374Z,31.43
2019-02-05T02:27:47.424Z,31.53
2019-02-05T02:28:18.639Z,31.70
2019-02-05T02:28:49.832Z,31.73
2019-02-05T02:29:21.071Z,32.10
2019-02-05T02:29:52.270Z,32.90
2019-02-05T02:30:29.891Z,32.33
2019-02-05T02:31:01.276Z,31.90
2019-02-05T02:31:32.640Z,32.33
2019-02-05T02:32:03.946Z,30.63
2019-02-05T02:32:35.244Z,34.63
2019-02-05T02:33:06.908Z,33.87
2019-02-05T02:33:38.537Z,34.20
2019-02-05T02:34:09.763Z,33.23
2019-02-05T02:34:41.022Z,36.00
2019-02-05T02:35:12.202Z,32.40
2019-02-05T02:35:43.415Z,32.83
2019-02-05T02:36:14.766Z,35.90
2019-02-05T02:36:45.989Z,36.00
2019-02-05T02:37:17.260Z,30.03
2019-02-05T02:37:48.463Z,31.97
2019-02-05T02:38:19.642Z,31.63
2019-02-05T02:38:50.876Z,29.90
2019-02-05T02:39:22.487Z,31.20
2019-02-05T02:39:53.688Z,33.80
2019-02-05T02:40:24.921Z,30.70
2019-02-05T02:40:56.141Z,30.93
2019-02-05T02:41:27.382Z,30.70
2019-02-05T02:41:58.603Z,30.20
2019-02-05T02:42:29.864Z,33.47
2019-02-05T02:43:01.052Z,30.97
2019-02-05T02:43:32.292Z,32.53
2019-02-05T02:44:03.588Z,30.47
2019-02-05T02:44:34.818Z,31.40
2019-02-05T02:45:12.530Z,34.63
2019-02-05T02:45:43.736Z,31.23
2019-02-05T02:46:15.255Z,28.40
2019-02-05T02:46:46.490Z,31.80
2019-02-05T02:47:17.685Z,37.03
2019-02-05T02:47:48.886Z,35.13
2019-02-05T02:48:20.107Z,31.90
2019-02-05T02:48:51.337Z,35.47
2019-02-05T02:49:22.532Z,35.67
2019-02-05T02:49:53.771Z,32.23
2019-02-05T02:50:24.943Z,34.23
2019-02-05T02:50:56.209Z,28.13
2019-02-05T02:51:27.386Z,31.40
2019-02-05T02:51:59.119Z,30.60
2019-02-05T02:52:31.301Z,31.57
2019-02-05T02:53:02.581Z,31.27
2019-02-05T02:53:33.830Z,31.97
2019-02-05T02:54:05.091Z,33.53
2019-02-05T02:54:36.636Z,33.27
2019-02-05T02:55:07.967Z,31.30
2019-02-05T02:55:39.443Z,30.23
2019-02-05T02:56:10.681Z,31.47
2019-02-05T02:56:41.869Z,30.87
2019-02-05T02:57:13.110Z,31.03
2019-02-05T02:57:44.468Z,28.97
2019-02-05T02:58:15.752Z,34.20
2019-02-05T02:58:46.895Z,30.87
2019-02-05T02:59:18.152Z,34.63
2019-02-05T02:59:49.421Z,35.27
2019-02-05T03:00:21.280Z,29.83
2019-02-05T03:00:52.468Z,29.23
2019-02-05T03:01:23.720Z,31.87
2019-02-05T03:01:54.926Z,29.10
2019-02-05T03:02:26.174Z,34.43
2019-02-05T03:02:57.370Z,35.07
2019-02-05T03:03:29.013Z,32.90
2019-02-05T03:04:00.217Z,30.87
2019-02-05T03:04:31.414Z,33.10
2019-02-05T03:05:07.131Z,30.33
2019-02-05T03:05:38.340Z,32.40
2019-02-05T03:06:09.545Z,31.67
2019-02-05T03:06:40.795Z,30.73
2019-02-05T03:07:11.975Z,31.57
2019-02-05T03:07:43.148Z,30.57
2019-02-05T03:08:14.453Z,34.07
2019-02-05T03:08:45.675Z,33.87
2019-02-05T03:09:17.181Z,34.57
2019-02-05T03:09:48.408Z,31.83
2019-02-05T03:10:28.384Z,34.23
2019-02-05T03:10:59.677Z,32.43
2019-02-05T03:11:30.909Z,33.23
2019-02-05T03:12:02.122Z,33.73
2019-02-05T03:12:33.559Z,36.67
2019-02-05T03:13:04.866Z,35.27
2019-02-05T03:13:36.080Z,31.70
2019-02-05T03:14:07.350Z,33.67
2019-02-05T03:14:38.528Z,29.80
2019-02-05T03:15:10.076Z,32.53
2019-02-05T03:15:41.263Z,34.70
2019-02-05T03:16:12.726Z,34.37
2019-02-05T03:16:44.014Z,31.10
2019-02-05T03:17:15.341Z,32.97
2019-02-05T03:17:46.570Z,32.43
2019-02-05T03:18:17.917Z,33.30
2019-02-05T03:18:49.118Z,33.10
2019-02-05T03:19:20.357Z,34.33
2019-02-05T03:19:51.605Z,33.50
2019-02-05T03:20:22.870Z,27.93
2019-02-05T03:20:54.463Z,32.57
2019-02-05T03:21:25.867Z,34.20
2019-02-05T03:21:57.148Z,32.43
2019-02-05T03:22:28.375Z,32.93
2019-02-05T03:22:59.661Z,32.83
2019-02-05T03:23:30.886Z,35.17
2019-02-05T03:24:02.052Z,35.53
2019-02-05T03:24:33.455Z,31.60
2019-02-05T03:25:09.000Z,31.93
2019-02-05T03:25:40.238Z,31.10
2019-02-05T03:26:11.414Z,33.33
2019-02-05T03:26:42.989Z,30.50
2019-02-05T03:27:17.964Z,30.17
2019-02-05T03:27:47.429Z,36.27
2019-02-05T03:28:18.586Z,30.57
2019-02-05T03:28:49.846Z,34.90
2019-02-05T03:29:21.185Z,34.73
2019-02-05T03:29:52.462Z,34.37
2019-02-05T03:30:23.903Z,34.63
2019-02-05T03:30:55.285Z,37.27
2019-02-05T03:31:26.800Z,32.90
2019-02-05T03:31:58.177Z,36.47
2019-02-05T03:32:29.751Z,35.40
2019-02-05T03:33:01.129Z,33.60
2019-02-05T03:33:32.505Z,38.10
2019-02-05T03:34:03.935Z,35.20
2019-02-05T03:34:35.185Z,32.30
2019-02-05T03:35:07.685Z,33.60
2019-02-05T03:35:38.999Z,33.03
2019-02-05T03:36:10.191Z,33.10
2019-02-05T03:36:41.465Z,32.10
2019-02-05T03:37:12.961Z,32.43
2019-02-05T03:37:44.206Z,40.90
2019-02-05T03:38:15.383Z,31.77
2019-02-05T03:38:46.635Z,30.17
2019-02-05T03:39:17.892Z,34.70
2019-02-05T03:39:49.101Z,31.57
2019-02-05T03:40:34.810Z,38.53
2019-02-05T03:41:06.109Z,33.43
2019-02-05T03:41:37.501Z,32.87
2019-02-05T03:42:08.834Z,34.87
2019-02-05T03:42:40.110Z,36.83
2019-02-05T03:43:11.349Z,33.93
2019-02-05T03:43:42.542Z,34.43
2019-02-05T03:44:13.782Z,34.73
2019-02-05T03:44:45.008Z,32.43
2019-02-05T03:45:16.690Z,34.37
2019-02-05T03:45:47.989Z,32.80
2019-02-05T03:46:19.267Z,32.07
2019-02-05T03:46:50.663Z,32.47
2019-02-05T03:47:22.032Z,34.13
2019-02-05T03:47:55.703Z,36.40
2019-02-05T03:48:27.141Z,33.47
2019-02-05T03:48:58.422Z,34.17
2019-02-05T03:49:29.795Z,36.03
2019-02-05T03:50:01.072Z,34.73
2019-02-05T03:50:45.553Z,30.83
2019-02-05T03:51:28.305Z,36.53
2019-02-05T03:52:03.122Z,33.10
2019-02-05T03:52:39.810Z,34.07
2019-02-05T03:53:25.527Z,36.73
2019-02-05T03:54:14.586Z,35.23
2019-02-05T03:54:51.542Z,36.00
2019-02-05T03:55:43.156Z,34.00
2019-02-05T03:56:51.869Z,34.73
2019-02-05T03:57:40.706Z,33.40
2019-02-05T03:58:34.102Z,36.10
2019-02-05T03:59:17.786Z,36.20
2019-02-05T04:00:29.542Z,33.33
2019-02-05T04:01:15.053Z,32.67
2019-02-05T04:02:03.393Z,35.47
2019-02-05T04:03:04.161Z,38.47
2019-02-05T04:03:56.027Z,37.63
2019-02-05T04:05:20.919Z,38.27
2019-02-05T04:06:03.861Z,36.57
2019-02-05T04:07:03.605Z,40.73
2019-02-05T04:07:47.581Z,35.57
2019-02-05T04:08:54.371Z,36.77
2019-02-05T04:09:56.528Z,32.60
2019-02-05T04:11:09.898Z,34.93
2019-02-05T04:12:07.525Z,33.80
2019-02-05T04:12:58.990Z,35.17
2019-02-05T04:13:41.943Z,37.57
2019-02-05T04:14:41.490Z,38.63
2019-02-05T04:15:30.423Z,35.33
2019-02-05T04:16:37.248Z,36.33
2019-02-05T04:17:31.654Z,35.80
2019-02-05T04:18:23.615Z,34.73
2019-02-05T04:19:32.249Z,38.67
2019-02-05T04:20:24.679Z,38.87
2019-02-05T04:21:30.015Z,35.13
2019-02-05T04:22:09.799Z,36.13
2019-02-05T04:22:55.877Z,36.40
2019-02-05T04:23:56.451Z,37.17
2019-02-05T04:25:07.794Z,37.93
2019-02-05T04:25:53.831Z,34.83
2019-02-05T04:26:50.075Z,37.13
2019-02-05T04:27:44.085Z,35.97
2019-02-05T04:28:26.686Z,39.97
2019-02-05T04:29:21.594Z,38.90
2019-02-05T04:30:07.036Z,41.87
2019-02-05T04:31:02.061Z,40.50
2019-02-05T04:32:01.592Z,35.77
2019-02-05T04:32:47.288Z,35.07
2019-02-05T04:33:42.350Z,36.23
2019-02-05T04:34:47.400Z,46.23
2019-02-05T04:35:48.266Z,47.30
2019-02-05T04:36:43.325Z,49.03
2019-02-05T04:37:43.944Z,55.73
2019-02-05T04:38:44.687Z,48.63
2019-02-05T04:39:33.439Z,40.67
2019-02-05T04:40:28.603Z,41.87
2019-02-05T04:41:08.186Z,39.13
2019-02-05T04:41:53.900Z,46.07
2019-02-05T04:42:34.701Z,36.33
2019-02-05T04:43:29.709Z,41.10
2019-02-05T04:44:24.928Z,41.63
2019-02-05T04:45:18.472Z,42.23
2019-02-05T04:46:10.488Z,38.57
2019-02-05T04:47:05.393Z,40.47
2019-02-05T04:47:56.629Z,39.43
2019-02-05T04:48:59.278Z,41.73
2019-02-05T04:49:46.019Z,36.30
2019-02-05T04:50:44.977Z,37.53
2019-02-05T04:52:00.843Z,35.53
2019-02-05T04:52:57.146Z,37.77
2019-02-05T04:54:13.977Z,36.60
2019-02-05T04:55:15.027Z,37.57
2019-02-05T04:56:00.884Z,40.33
2019-02-05T04:56:40.762Z,41.70
2019-02-05T04:57:32.359Z,39.63
2019-02-05T04:58:48.732Z,38.47
2019-02-05T04:59:51.428Z,39.10
2019-02-05T05:00:45.711Z,38.30
2019-02-05T05:01:43.313Z,44.40
2019-02-05T05:02:40.604Z,41.87
2019-02-05T05:03:35.268Z,41.03
2019-02-05T05:04:46.676Z,42.40
2019-02-05T05:05:38.751Z,39.67
2019-02-05T05:06:24.330Z,45.13
2019-02-05T05:07:09.851Z,41.10
2019-02-05T05:08:04.920Z,41.90
2019-02-05T05:09:08.783Z,43.23
2019-02-05T05:09:55.457Z,46.27
2019-02-05T05:10:27.002Z,43.13
2019-02-05T05:10:58.262Z,41.90
2019-02-05T05:11:29.628Z,43.17
2019-02-05T05:12:00.848Z,41.57
2019-02-05T05:12:32.098Z,48.03
2019-02-05T05:13:03.520Z,49.23
2019-02-05T05:13:34.748Z,46.40
2019-02-05T05:14:06.032Z,45.13
2019-02-05T05:14:37.261Z,38.30
2019-02-05T05:15:09.188Z,45.47
2019-02-05T05:15:40.412Z,49.30
2019-02-05T05:16:12.034Z,41.23
2019-02-05T05:16:43.831Z,45.03
2019-02-05T05:17:15.047Z,43.43
2019-02-05T05:17:46.267Z,41.73
2019-02-05T05:18:17.585Z,40.73
2019-02-05T05:18:49.796Z,41.93
2019-02-05T05:19:22.129Z,38.43
2019-02-05T05:19:53.370Z,39.30
2019-02-05T05:20:24.605Z,43.93
2019-02-05T05:20:55.858Z,39.97
2019-02-05T05:21:27.068Z,44.60
2019-02-05T05:21:59.709Z,40.00
2019-02-05T05:22:30.957Z,41.83
2019-02-05T05:23:02.299Z,44.17
2019-02-05T05:23:33.631Z,43.23
2019-02-05T05:24:04.922Z,41.47
2019-02-05T05:24:36.628Z,46.03
2019-02-05T05:25:08.873Z,45.30
2019-02-05T05:25:40.237Z,44.93
2019-02-05T05:26:11.473Z,43.30
2019-02-05T05:26:42.789Z,45.27
2019-02-05T05:27:15.031Z,47.60
2019-02-05T05:27:46.674Z,50.40
2019-02-05T05:28:17.953Z,50.20
2019-02-05T05:28:49.155Z,47.30
2019-02-05T05:29:20.359Z,42.57
2019-02-05T05:29:51.570Z,43.70
2019-02-05T05:30:22.894Z,47.57
2019-02-05T05:30:54.155Z,43.20
2019-02-05T05:31:25.356Z,43.30
2019-02-05T05:31:56.604Z,46.97
2019-02-05T05:32:27.913Z,43.40
2019-02-05T05:32:59.226Z,45.13
2019-02-05T05:33:30.880Z,61.63
2019-02-05T05:34:02.301Z,53.40
2019-02-05T05:34:33.695Z,51.83
2019-02-05T05:35:07.603Z,52.97
2019-02-05T05:35:43.510Z,48.47
2019-02-05T05:36:12.033Z,51.27
2019-02-05T05:36:47.942Z,46.63
2019-02-05T05:37:20.397Z,45.13
2019-02-05T05:37:51.691Z,47.00
2019-02-05T05:38:22.975Z,45.70
2019-02-05T05:38:54.276Z,49.33
2019-02-05T05:39:25.472Z,45.93
2019-02-05T05:39:56.756Z,46.70
2019-02-05T05:40:29.170Z,45.13
2019-02-05T05:41:00.394Z,46.70
2019-02-05T05:41:31.605Z,43.60
2019-02-05T05:42:03.157Z,44.87
2019-02-05T05:42:34.370Z,50.27
2019-02-05T05:43:05.589Z,47.03
2019-02-05T05:43:36.800Z,47.27
2019-02-05T05:44:09.553Z,45.23
2019-02-05T05:44:41.047Z,47.13
2019-02-05T05:45:12.872Z,41.17
2019-02-05T05:45:44.196Z,50.50
2019-02-05T05:46:15.726Z,48.53
2019-02-05T05:46:46.943Z,47.73
2019-02-05T05:47:18.161Z,49.17
2019-02-05T05:47:49.365Z,46.27
2019-02-05T05:48:20.580Z,43.60
2019-02-05T05:48:51.875Z,47.50
2019-02-05T05:49:23.094Z,42.83
2019-02-05T05:49:54.306Z,45.80
2019-02-05T05:50:25.638Z,44.93
2019-02-05T05:50:56.860Z,48.17
2019-02-05T05:51:28.124Z,45.33
2019-02-05T05:51:59.744Z,55.23
2019-02-05T05:52:31.098Z,58.37
2019-02-05T05:53:02.433Z,50.37
2019-02-05T05:53:33.690Z,51.67
2019-02-05T05:54:04.903Z,43.53
2019-02-05T05:54:36.238Z,48.50
2019-02-05T05:55:07.552Z,48.77
2019-02-05T05:55:38.968Z,45.70
2019-02-05T05:56:10.178Z,48.37
2019-02-05T05:56:41.760Z,47.47
2019-02-05T05:57:13.991Z,45.93
2019-02-05T05:57:45.326Z,45.33
2019-02-05T05:58:23.460Z,46.53
2019-02-05T05:58:49.688Z,46.43
2019-02-05T05:59:20.861Z,48.93
2019-02-05T05:59:52.219Z,46.33
2019-02-05T06:00:23.502Z,43.33
2019-02-05T06:00:54.740Z,44.57
2019-02-05T06:01:25.932Z,40.77
2019-02-05T06:01:57.176Z,44.93
2019-02-05T06:02:30.549Z,45.60
2019-02-05T06:03:01.887Z,38.30
2019-02-05T06:03:33.474Z,48.33
2019-02-05T06:04:04.808Z,47.73
2019-02-05T06:04:36.187Z,49.80
2019-02-05T06:05:07.631Z,47.47
2019-02-05T06:05:38.869Z,48.07
2019-02-05T06:06:10.180Z,48.37
2019-02-05T06:06:41.674Z,45.40
2019-02-05T06:07:12.936Z,53.67
2019-02-05T06:07:44.218Z,47.57
2019-02-05T06:08:15.770Z,52.93
2019-02-05T06:08:46.963Z,52.03
2019-02-05T06:09:18.210Z,54.57
2019-02-05T06:09:49.387Z,52.60
2019-02-05T06:10:20.632Z,62.73
2019-02-05T06:10:51.837Z,61.77
2019-02-05T06:11:23.152Z,62.57
2019-02-05T06:11:54.372Z,60.57
2019-02-05T06:12:25.631Z,49.30
2019-02-05T06:12:56.941Z,56.60
2019-02-05T06:13:28.306Z,49.67
2019-02-05T06:13:59.961Z,55.10
2019-02-05T06:14:31.262Z,52.20
2019-02-05T06:15:06.229Z,55.00
2019-02-05T06:15:37.604Z,52.57
2019-02-05T06:16:09.125Z,55.53
2019-02-05T06:16:40.463Z,53.97
2019-02-05T06:17:11.715Z,47.43
2019-02-05T06:17:42.907Z,45.93
2019-02-05T06:18:14.243Z,46.53
2019-02-05T06:18:45.428Z,46.07
2019-02-05T06:19:16.681Z,46.13
2019-02-05T06:19:48.163Z,52.07
2019-02-05T06:20:19.426Z,57.93
2019-02-05T06:20:50.688Z,62.77
2019-02-05T06:21:21.937Z,67.37
2019-02-05T06:21:53.146Z,62.30
2019-02-05T06:22:24.366Z,58.87
2019-02-05T06:22:55.568Z,55.97
2019-02-05T06:23:26.796Z,53.33
2019-02-05T06:23:57.976Z,50.17
2019-02-05T06:24:29.221Z,54.80
2019-02-05T06:25:00.513Z,58.87
2019-02-05T06:25:32.167Z,58.50
2019-02-05T06:26:03.358Z,54.93
2019-02-05T06:26:34.715Z,58.03
2019-02-05T06:27:06.209Z,60.67
2019-02-05T06:27:37.499Z,47.37
2019-02-05T06:28:08.776Z,47.53
2019-02-05T06:28:40.045Z,47.73
2019-02-05T06:29:11.324Z,47.80
2019-02-05T06:29:42.619Z,49.63
2019-02-05T06:30:15.554Z,50.10
2019-02-05T06:30:46.953Z,48.60
2019-02-05T06:31:18.572Z,45.93
2019-02-05T06:31:49.843Z,47.37
2019-02-05T06:32:21.114Z,43.97
2019-02-05T06:32:52.393Z,45.17
2019-02-05T06:33:23.711Z,46.20
2019-02-05T06:33:54.916Z,49.13
2019-02-05T06:34:26.154Z,67.30
2019-02-05T06:34:57.309Z,48.70
2019-02-05T06:35:28.596Z,50.93
2019-02-05T06:35:59.950Z,47.80
2019-02-05T06:36:31.291Z,49.40
2019-02-05T06:37:03.179Z,48.60
2019-02-05T06:37:34.508Z,48.80
2019-02-05T06:38:05.712Z,47.07
2019-02-05T06:38:36.948Z,53.83
2019-02-05T06:39:08.114Z,47.37
2019-02-05T06:39:39.380Z,50.43
2019-02-05T06:40:15.795Z,48.67
2019-02-05T06:40:47.038Z,48.00
2019-02-05T06:41:18.220Z,50.47
2019-02-05T06:41:49.509Z,48.50
2019-02-05T06:42:20.798Z,46.37
2019-02-05T06:42:52.284Z,47.03
2019-02-05T06:43:23.555Z,47.50
2019-02-05T06:43:54.833Z,48.93
2019-02-05T06:44:26.118Z,48.07
2019-02-05T06:44:57.491Z,49.20
2019-02-05T06:45:28.835Z,48.10
2019-02-05T06:46:00.114Z,45.37
2019-02-05T06:46:31.390Z,46.37
2019-02-05T06:47:02.957Z,44.07
2019-02-05T06:47:34.212Z,44.73
2019-02-05T06:48:05.405Z,45.63
2019-02-05T06:48:37.090Z,46.50
2019-02-05T06:49:08.259Z,44.50
2019-02-05T06:49:39.514Z,44.87
2019-02-05T06:50:12.087Z,48.23
2019-02-05T06:50:43.323Z,53.80
2019-02-05T06:51:14.591Z,46.83
2019-02-05T06:51:45.856Z,50.57
2019-02-05T06:52:17.128Z,49.57
2019-02-05T06:52:48.420Z,52.83
2019-02-05T06:53:19.713Z,52.67
2019-02-05T06:53:51.042Z,48.53
2019-02-05T06:54:22.638Z,49.70
2019-02-05T06:54:53.967Z,46.97
2019-02-05T06:55:25.167Z,48.67
2019-02-05T06:55:56.421Z,49.00
2019-02-05T06:56:27.621Z,43.20
2019-02-05T06:56:58.962Z,46.20
2019-02-05T06:57:31.182Z,51.63
2019-02-05T06:58:02.450Z,48.23
2019-02-05T06:58:45.605Z,49.53
2019-02-05T06:59:07.081Z,48.50
2019-02-05T06:59:38.372Z,47.90
2019-02-05T07:00:15.647Z,48.20
2019-02-05T07:00:46.937Z,49.70
2019-02-05T07:01:18.714Z,48.17
2019-02-05T07:01:51.025Z,45.33
2019-02-05T07:02:23.382Z,46.33
2019-02-05T07:02:54.625Z,49.60
2019-02-05T07:03:25.808Z,54.67
2019-02-05T07:03:57.054Z,51.03
2019-02-05T07:04:28.244Z,50.50
2019-02-05T07:04:59.517Z,49.53
2019-02-05T07:05:30.817Z,45.93
2019-02-05T07:06:02.080Z,47.57
2019-02-05T07:06:33.419Z,45.80
2019-02-05T07:07:05.092Z,47.00
2019-02-05T07:07:36.299Z,46.87
2019-02-05T07:08:07.603Z,46.90
2019-02-05T07:08:38.863Z,50.07
2019-02-05T07:09:10.131Z,44.77
2019-02-05T07:09:41.399Z,49.03
2019-02-05T07:10:24.659Z,47.53
2019-02-05T07:10:55.990Z,57.10
2019-02-05T07:11:27.303Z,50.57
2019-02-05T07:11:58.499Z,46.43
2019-02-05T07:12:29.727Z,50.40
2019-02-05T07:13:00.948Z,55.73
2019-02-05T07:13:32.184Z,64.53
2019-02-05T07:14:04.136Z,72.40
2019-02-05T07:14:35.368Z,81.10
2019-02-05T07:15:08.660Z,81.37
2019-02-05T07:15:40.082Z,79.50
2019-02-05T07:16:11.403Z,95.33
2019-02-05T07:16:42.674Z,91.80
2019-02-05T07:17:14.073Z,94.93
2019-02-05T07:17:49.672Z,89.70
2019-02-05T07:18:18.404Z,84.57
2019-02-05T07:18:49.740Z,77.47
2019-02-05T07:19:20.947Z,82.90
2019-02-05T07:19:52.278Z,77.60
2019-02-05T07:20:23.470Z,79.53
2019-02-05T07:20:55.132Z,71.93
2019-02-05T07:21:26.390Z,69.63